Time;durP1;ratioP1;P1;durP2;ratioP2;P2;SDS_P1;SDS_P2;PMS_P1;PMS_P2;Temp;Humidity;BMP_temperature;BMP_pressure;BME280_temperature;BME280_humidity;BME280_pressure;Samples;Min_cycle;Max_cycle;Signal;HPM_P1;HPM_P2
2023/05/04 00:00:07;;;;;;;6.65;1.20;;;;;;;;;;5061101;28;20060;-64
2023/05/04 00:02:33;;;;;;;6.65;1.70;;;;;;;;;;5044336;28;20045;-64
2023/05/04 00:05:00;;;;;;;5.05;1.27;;;;;;;;;;5045395;28;20060;-65
2023/05/04 00:07:27;;;;;;;6.45;1.40;;;;;;;;;;5042464;28;20029;-62
2023/05/04 00:09:53;;;;;;;11.88;1.77;;;;;;;;;;5043325;28;20037;-62
2023/05/04 00:12:20;;;;;;;6.32;1.10;;;;;;;;;;5044090;28;20551;-60
2023/05/04 00:14:47;;;;;;;8.88;1.25;;;;;;;;;;5043225;28;20055;-61
2023/05/04 00:17:14;;;;;;;6.53;1.45;;;;;;;;;;5044446;28;20075;-61
2023/05/04 00:19:41;;;;;;;5.60;1.30;;;;;;;;;;5043864;28;20926;-64
2023/05/04 00:22:08;;;;;;;6.38;1.60;;;;;;;;;;5045372;28;20160;-66
2023/05/04 00:24:35;;;;;;;7.90;1.50;;;;;;;;;;5044583;28;20044;-61
2023/05/04 00:27:01;;;;;;;8.63;1.40;;;;;;;;;;5045337;28;20036;-62
2023/05/04 00:29:28;;;;;;;11.30;1.63;;;;;;;;;;5043255;28;20044;-61
2023/05/04 00:31:55;;;;;;;6.72;1.30;;;;;;;;;;5046367;28;20044;-62
2023/05/04 00:34:21;;;;;;;6.65;1.60;;;;;;;;;;5044766;28;20048;-62
2023/05/04 00:36:48;;;;;;;9.52;1.70;;;;;;;;;;5060230;28;20078;-62
2023/05/04 00:39:35;;;;;;;7.82;1.30;;;;;;;;;;5050267;28;20085;-63
2023/05/04 00:42:02;;;;;;;6.40;1.20;;;;;;;;;;5026371;28;20052;-62
2023/05/04 00:44:29;;;;;;;5.75;1.20;;;;;;;;;;5020512;28;20038;-61
2023/05/04 00:46:56;;;;;;;5.00;1.40;;;;;;;;;;5022004;28;20041;-62
2023/05/04 00:49:24;;;;;;;4.60;1.10;;;;;;;;;;5021559;28;20647;-64
2023/05/04 00:51:51;;;;;;;3.83;1.45;;;;;;;;;;5022027;28;20086;-63
2023/05/04 00:54:18;;;;;;;8.30;1.50;;;;;;;;;;5011032;28;20045;-63
2023/05/04 00:56:45;;;;;;;8.27;1.38;;;;;;;;;;5018668;28;20041;-63
2023/05/04 00:59:15;;;;;;;4.75;1.10;;;;;;;;;;5019822;28;20038;-62
2023/05/04 01:01:42;;;;;;;6.88;1.60;;;;;;;;;;5019689;28;20037;-64
2023/05/04 01:04:08;;;;;;;9.15;1.40;;;;;;;;;;5017599;28;20044;-62
2023/05/04 01:06:38;;;;;;;5.68;1.25;;;;;;;;;;5018205;28;20212;-64
2023/05/04 01:09:05;;;;;;;5.03;1.05;;;;;;;;;;5021422;28;20079;-62
2023/05/04 01:11:42;;;;;;;6.90;1.23;;;;;;;;;;5021054;28;20045;-63
2023/05/04 01:14:10;;;;;;;5.82;1.20;;;;;;;;;;5043077;28;20049;-63
2023/05/04 01:16:36;;;;;;;5.95;1.25;;;;;;;;;;5048060;28;20032;-61
2023/05/04 01:19:03;;;;;;;8.73;1.23;;;;;;;;;;5044109;28;20139;-62
2023/05/04 01:21:30;;;;;;;6.65;1.00;;;;;;;;;;5043311;28;20032;-62
2023/05/04 01:23:57;;;;;;;5.57;1.60;;;;;;;;;;5043878;28;20511;-62
2023/05/04 01:26:32;;;;;;;8.15;1.70;;;;;;;;;;5043011;28;20052;-59
2023/05/04 01:29:18;;;;;;;8.23;1.58;;;;;;;;;;5043028;28;20393;-61
2023/05/04 01:31:46;;;;;;;9.38;1.63;;;;;;;;;;5040924;28;20137;-62
2023/05/04 01:34:13;;;;;;;6.55;1.42;;;;;;;;;;5041665;28;20109;-61
2023/05/04 01:36:40;;;;;;;9.43;1.60;;;;;;;;;;5042761;28;20174;-62
2023/05/04 01:39:07;;;;;;;5.25;1.05;;;;;;;;;;5042832;28;20254;-61
2023/05/04 01:41:33;;;;;;;5.03;1.60;;;;;;;;;;5044412;28;20045;-61
2023/05/04 01:44:00;;;;;;;11.48;1.40;;;;;;;;;;5043261;28;20061;-64
2023/05/04 01:46:27;;;;;;;9.45;1.40;;;;;;;;;;5044552;28;20371;-63
2023/05/04 01:48:54;;;;;;;10.10;1.30;;;;;;;;;;5043141;28;20067;-63
2023/05/04 01:51:20;;;;;;;8.25;1.38;;;;;;;;;;5043718;28;20079;-61
2023/05/04 01:53:47;;;;;;;8.27;1.60;;;;;;;;;;5042073;28;20068;-62
2023/05/04 01:56:14;;;;;;;8.57;1.20;;;;;;;;;;5040531;28;20155;-62
2023/05/04 01:58:40;;;;;;;6.15;1.40;;;;;;;;;;5062151;28;21379;-63
2023/05/04 02:01:08;;;;;;;5.80;1.30;;;;;;;;;;5062378;28;20040;-64
2023/05/04 02:03:34;;;;;;;9.27;1.50;;;;;;;;;;5063756;28;20035;-64
2023/05/04 02:06:01;;;;;;;8.18;1.60;;;;;;;;;;5062134;28;20580;-65
2023/05/04 02:08:28;;;;;;;10.43;1.65;;;;;;;;;;5062908;28;20033;-63
2023/05/04 02:10:54;;;;;;;4.60;1.20;;;;;;;;;;5063928;28;20037;-62
2023/05/04 02:13:22;;;;;;;8.43;1.50;;;;;;;;;;5062713;28;20124;-63
2023/05/04 02:15:49;;;;;;;5.25;1.45;;;;;;;;;;5060463;28;20070;-63
2023/05/04 02:18:15;;;;;;;6.82;1.70;;;;;;;;;;5063216;28;20105;-63
2023/05/04 02:20:42;;;;;;;9.88;1.50;;;;;;;;;;5061851;28;20045;-62
2023/05/04 02:23:09;;;;;;;7.35;1.40;;;;;;;;;;5061609;28;20404;-61
2023/05/04 02:25:39;;;;;;;7.05;1.70;;;;;;;;;;5062076;28;20039;-61
2023/05/04 02:28:05;;;;;;;7.65;1.73;;;;;;;;;;5062522;28;20120;-62
2023/05/04 02:30:52;;;;;;;9.85;1.90;;;;;;;;;;5071587;28;20044;-61
2023/05/04 02:33:19;;;;;;;10.23;1.88;;;;;;;;;;5079995;28;20066;-62
2023/05/04 02:35:45;;;;;;;9.68;1.70;;;;;;;;;;5078658;28;20044;-64
2023/05/04 02:38:12;;;;;;;7.10;1.45;;;;;;;;;;5073003;28;20066;-63
2023/05/04 02:40:40;;;;;;;7.13;1.50;;;;;;;;;;5079693;28;20105;-62
2023/05/04 02:43:26;;;;;;;7.43;1.35;;;;;;;;;;5079310;28;20261;-63
2023/05/04 02:45:53;;;;;;;48.95;4.15;;;;;;;;;;5059234;28;20587;-66
2023/05/04 02:48:20;;;;;;;17.17;2.20;;;;;;;;;;5060811;28;20105;-62
2023/05/04 02:50:48;;;;;;;8.20;1.60;;;;;;;;;;5031835;28;20051;-61
2023/05/04 02:53:14;;;;;;;11.15;1.67;;;;;;;;;;5039566;28;20045;-64
2023/05/04 02:55:41;;;;;;;14.43;2.90;;;;;;;;;;5048893;28;20556;-60
2023/05/04 02:58:08;;;;;;;12.32;2.95;;;;;;;;;;5040586;28;20028;-62
2023/05/04 03:00:34;;;;;;;14.52;2.63;;;;;;;;;;5057558;28;20044;-62
2023/05/04 03:03:01;;;;;;;12.40;2.00;;;;;;;;;;5060565;28;20840;-60
2023/05/04 03:05:28;;;;;;;11.80;2.03;;;;;;;;;;5056512;28;21802;-59
2023/05/04 03:07:55;;;;;;;8.60;1.80;;;;;;;;;;5041894;28;20142;-63
2023/05/04 03:10:21;;;;;;;8.48;1.77;;;;;;;;;;5059429;28;20051;-59
2023/05/04 03:12:48;;;;;;;10.27;1.75;;;;;;;;;;5021931;28;20168;-61
2023/05/04 03:15:15;;;;;;;11.90;1.92;;;;;;;;;;4985059;28;20078;-60
2023/05/04 03:17:42;;;;;;;9.85;2.10;;;;;;;;;;5030809;28;20048;-60
2023/05/04 03:20:09;;;;;;;13.90;1.83;;;;;;;;;;5037635;28;20049;-59
2023/05/04 03:22:36;;;;;;;13.77;2.00;;;;;;;;;;5039924;28;20037;-58
2023/05/04 03:25:03;;;;;;;13.23;2.10;;;;;;;;;;5040485;28;20568;-59
2023/05/04 03:27:30;;;;;;;14.52;2.40;;;;;;;;;;5039970;28;20061;-59
2023/05/04 03:29:57;;;;;;;18.27;2.20;;;;;;;;;;5041741;28;20536;-59
2023/05/04 03:32:23;;;;;;;16.50;2.38;;;;;;;;;;5041022;28;20049;-62
2023/05/04 03:34:51;;;;;;;13.73;2.10;;;;;;;;;;5042476;28;20059;-59
2023/05/04 03:37:18;;;;;;;14.35;1.88;;;;;;;;;;5040499;28;20061;-57
2023/05/04 03:39:46;;;;;;;13.00;2.65;;;;;;;;;;5040041;28;20065;-59
2023/05/04 03:42:12;;;;;;;27.08;3.08;;;;;;;;;;5041067;28;20056;-58
2023/05/04 03:44:39;;;;;;;15.15;3.13;;;;;;;;;;5039970;28;20409;-60
2023/05/04 03:47:06;;;;;;;19.52;2.83;;;;;;;;;;5041882;28;20543;-58
2023/05/04 03:49:33;;;;;;;16.77;2.20;;;;;;;;;;5032474;28;20074;-62
2023/05/04 03:52:00;;;;;;;10.63;1.90;;;;;;;;;;5047541;28;21741;-60
2023/05/04 03:54:27;;;;;;;11.57;2.42;;;;;;;;;;5041167;28;20435;-60
2023/05/04 03:56:53;;;;;;;11.10;2.65;;;;;;;;;;5041530;28;20036;-61
2023/05/04 03:59:20;;;;;;;12.50;2.20;;;;;;;;;;5040980;28;20418;-61
2023/05/04 04:01:47;;;;;;;22.35;2.72;;;;;;;;;;5041407;28;20044;-59
2023/05/04 04:04:13;;;;;;;38.13;3.55;;;;;;;;;;5059860;28;20136;-59
2023/05/04 04:06:40;;;;;;;18.13;2.75;;;;;;;;;;5046808;28;20092;-61
2023/05/04 04:09:07;;;;;;;14.77;2.75;;;;;;;;;;5046699;28;20075;-59
2023/05/04 04:11:34;;;;;;;39.67;3.00;;;;;;;;;;5043501;28;20492;-59
2023/05/04 04:14:01;;;;;;;20.67;2.22;;;;;;;;;;5046227;28;20044;-60
2023/05/04 04:16:28;;;;;;;13.45;2.03;;;;;;;;;;5051817;28;20633;-60
2023/05/04 04:18:54;;;;;;;12.88;2.15;;;;;;;;;;5045698;28;20041;-59
2023/05/04 04:21:21;;;;;;;8.32;1.85;;;;;;;;;;5046769;28;20064;-58
2023/05/04 04:23:48;;;;;;;8.68;1.77;;;;;;;;;;5043896;28;20068;-58
2023/05/04 04:26:14;;;;;;;8.75;1.85;;;;;;;;;;5045354;28;20041;-59
2023/05/04 04:28:43;;;;;;;11.75;2.28;;;;;;;;;;5044737;28;20041;-60
2023/05/04 04:31:10;;;;;;;9.77;1.80;;;;;;;;;;5059874;28;20152;-61
2023/05/04 04:33:36;;;;;;;11.95;1.88;;;;;;;;;;5043364;28;20041;-60
2023/05/04 04:36:03;;;;;;;11.05;2.00;;;;;;;;;;5043629;28;20071;-58
2023/05/04 04:38:30;;;;;;;13.00;1.98;;;;;;;;;;5044929;28;20138;-59
2023/05/04 04:40:56;;;;;;;5.40;1.30;;;;;;;;;;5041732;28;20060;-59
2023/05/04 04:43:23;;;;;;;9.13;2.17;;;;;;;;;;5063063;27;20043;-58
2023/05/04 04:45:52;;;;;;;10.45;1.80;;;;;;;;;;5079736;28;20492;-57
2023/05/04 04:48:20;;;;;;;18.50;2.13;;;;;;;;;;5065013;28;20036;-59
2023/05/04 04:50:47;;;;;;;11.82;1.85;;;;;;;;;;5065605;28;20131;-59
2023/05/04 04:53:14;;;;;;;15.27;2.17;;;;;;;;;;5064033;28;20579;-63
2023/05/04 04:55:41;;;;;;;11.60;2.47;;;;;;;;;;5061291;28;20143;-59
2023/05/04 04:58:08;;;;;;;12.07;1.95;;;;;;;;;;5062346;28;20477;-58
2023/05/04 05:00:35;;;;;;;11.68;2.20;;;;;;;;;;5064039;28;20045;-58
2023/05/04 05:03:02;;;;;;;12.32;2.20;;;;;;;;;;5062557;28;20452;-58
2023/05/04 05:05:29;;;;;;;11.80;2.20;;;;;;;;;;5061411;28;20040;-59
2023/05/04 05:07:56;;;;;;;14.40;2.10;;;;;;;;;;5064110;28;20564;-59
2023/05/04 05:10:22;;;;;;;7.80;1.92;;;;;;;;;;5064914;28;20040;-62
2023/05/04 05:12:50;;;;;;;14.00;2.15;;;;;;;;;;5061362;28;20048;-60
2023/05/04 05:15:16;;;;;;;10.02;1.90;;;;;;;;;;5062791;28;20070;-58
2023/05/04 05:17:43;;;;;;;10.27;2.40;;;;;;;;;;5063144;28;20199;-59
2023/05/04 05:20:10;;;;;;;13.60;2.10;;;;;;;;;;5068763;28;20540;-58
2023/05/04 05:22:37;;;;;;;14.02;1.88;;;;;;;;;;5062154;28;20637;-61
2023/05/04 05:25:07;;;;;;;16.70;2.22;;;;;;;;;;5063696;28;20040;-59
2023/05/04 05:27:35;;;;;;;13.25;2.42;;;;;;;;;;5062370;28;20036;-60
2023/05/04 05:30:02;;;;;;;14.13;2.08;;;;;;;;;;5081091;28;20053;-59
2023/05/04 05:32:29;;;;;;;10.15;2.08;;;;;;;;;;5066232;28;20039;-56
2023/05/04 05:34:56;;;;;;;12.55;2.55;;;;;;;;;;5068522;28;20064;-59
2023/05/04 05:37:23;;;;;;;12.18;2.30;;;;;;;;;;5066705;28;20040;-57
2023/05/04 05:39:50;;;;;;;13.77;2.72;;;;;;;;;;5066488;28;20127;-58
2023/05/04 05:42:36;;;;;;;11.75;2.47;;;;;;;;;;5084388;28;20052;-60
2023/05/04 05:45:03;;;;;;;14.43;2.75;;;;;;;;;;5055284;28;20488;-63
2023/05/04 05:47:30;;;;;;;17.75;2.70;;;;;;;;;;5065450;28;20036;-62
2023/05/04 05:49:58;;;;;;;14.77;2.88;;;;;;;;;;5074807;28;20035;-59
2023/05/04 05:52:25;;;;;;;9.73;2.47;;;;;;;;;;5081707;28;20040;-60
2023/05/04 05:54:52;;;;;;;12.45;2.80;;;;;;;;;;5072314;28;20072;-61
2023/05/04 05:57:19;;;;;;;21.17;3.08;;;;;;;;;;5050275;28;20036;-61
2023/05/04 05:59:46;;;;;;;13.48;2.78;;;;;;;;;;5077795;28;20555;-61
2023/05/04 06:02:13;;;;;;;22.13;2.55;;;;;;;;;;5079993;28;20044;-61
2023/05/04 06:04:45;;;;;;;14.65;3.20;;;;;;;;;;5078640;28;20032;-59
2023/05/04 06:07:13;;;;;;;13.63;3.00;;;;;;;;;;5079957;28;20052;-59
2023/05/04 06:09:40;;;;;;;18.77;3.50;;;;;;;;;;5048119;28;20096;-57
2023/05/04 06:12:12;;;;;;;9.35;2.50;;;;;;;;;;5061271;28;20741;-62
2023/05/04 06:14:41;;;;;;;12.93;2.97;;;;;;;;;;5069169;28;20048;-57
2023/05/04 06:17:08;;;;;;;11.23;2.72;;;;;;;;;;5079663;28;20071;-61
2023/05/04 06:19:35;;;;;;;13.45;3.10;;;;;;;;;;5072885;28;20686;-58
2023/05/04 06:22:04;;;;;;;8.90;2.58;;;;;;;;;;5063223;28;20664;-57
2023/05/04 06:24:31;;;;;;;11.90;2.63;;;;;;;;;;5061291;27;20115;-61
2023/05/04 06:26:57;;;;;;;23.20;2.75;;;;;;;;;;5062526;28;20427;-58
2023/05/04 06:29:24;;;;;;;12.40;2.67;;;;;;;;;;5059049;28;20055;-60
2023/05/04 06:31:53;;;;;;;16.50;3.30;;;;;;;;;;5062609;28;20162;-58
2023/05/04 06:34:20;;;;;;;17.63;3.33;;;;;;;;;;5060484;28;20063;-58
2023/05/04 06:36:48;;;;;;;23.02;3.13;;;;;;;;;;5053558;28;20609;-59
2023/05/04 06:39:14;;;;;;;20.08;3.67;;;;;;;;;;5061624;28;20141;-59
2023/05/04 06:41:41;;;;;;;22.75;3.55;;;;;;;;;;5061667;28;20155;-60
2023/05/04 06:44:08;;;;;;;24.77;4.18;;;;;;;;;;5076655;28;21007;-61
2023/05/04 06:46:36;;;;;;;22.13;3.85;;;;;;;;;;5063062;28;20046;-60
2023/05/04 06:49:06;;;;;;;13.90;3.58;;;;;;;;;;5062587;28;20036;-57
2023/05/04 06:51:36;;;;;;;21.90;3.67;;;;;;;;;;5062904;28;20051;-57
2023/05/04 06:54:03;;;;;;;18.55;3.55;;;;;;;;;;5062210;28;20052;-58
2023/05/04 06:56:30;;;;;;;19.83;3.70;;;;;;;;;;5061107;28;20494;-59
2023/05/04 06:58:56;;;;;;;15.77;3.63;;;;;;;;;;5063628;28;20448;-58
2023/05/04 07:01:23;;;;;;;23.30;3.95;;;;;;;;;;5062011;28;20032;-56
2023/05/04 07:03:50;;;;;;;21.02;3.58;;;;;;;;;;5061939;28;20040;-58
2023/05/04 07:06:17;;;;;;;23.27;3.22;;;;;;;;;;5062693;28;20066;-59
2023/05/04 07:08:44;;;;;;;22.67;4.00;;;;;;;;;;5061994;28;20268;-60
2023/05/04 07:11:10;;;;;;;18.33;3.75;;;;;;;;;;5061460;28;20032;-56
2023/05/04 07:13:38;;;;;;;15.65;3.10;;;;;;;;;;5060348;28;20052;-59
2023/05/04 07:16:07;;;;;;;20.60;4.47;;;;;;;;;;5062046;28;20549;-56
2023/05/04 07:18:34;;;;;;;19.55;3.63;;;;;;;;;;5060486;27;20045;-57
2023/05/04 07:21:02;;;;;;;16.77;3.00;;;;;;;;;;5060167;28;20189;-59
2023/05/04 07:23:29;;;;;;;21.55;3.47;;;;;;;;;;5059492;28;20090;-62
2023/05/04 07:25:56;;;;;;;21.02;3.65;;;;;;;;;;5057685;28;20044;-59
2023/05/04 07:28:22;;;;;;;22.58;3.92;;;;;;;;;;5059279;27;20158;-60
2023/05/04 07:30:50;;;;;;;22.90;3.65;;;;;;;;;;5062517;28;20121;-59
2023/05/04 07:33:16;;;;;;;20.52;3.75;;;;;;;;;;5060754;28;20052;-58
2023/05/04 07:35:43;;;;;;;19.50;3.72;;;;;;;;;;5075624;28;20126;-59
2023/05/04 07:38:10;;;;;;;19.10;3.30;;;;;;;;;;5063442;28;20101;-57
2023/05/04 07:40:36;;;;;;;14.80;3.30;;;;;;;;;;5064114;28;20154;-58
2023/05/04 07:43:03;;;;;;;21.35;3.45;;;;;;;;;;5065081;28;20058;-59
2023/05/04 07:45:29;;;;;;;13.52;3.83;;;;;;;;;;5063975;28;20063;-61
2023/05/04 07:47:56;;;;;;;13.45;3.03;;;;;;;;;;5065462;28;20504;-57
2023/05/04 07:50:23;;;;;;;20.60;3.35;;;;;;;;;;5063439;28;20045;-57
2023/05/04 07:52:51;;;;;;;18.88;3.67;;;;;;;;;;5065945;28;20090;-57
2023/05/04 07:55:17;;;;;;;17.67;3.65;;;;;;;;;;5081050;27;20036;-56
2023/05/04 07:57:44;;;;;;;23.05;3.47;;;;;;;;;;5065043;28;20389;-58
2023/05/04 08:00:11;;;;;;;13.38;3.42;;;;;;;;;;5080482;28;20037;-60
2023/05/04 08:02:38;;;;;;;23.73;3.80;;;;;;;;;;5064543;28;20040;-60
2023/05/04 08:05:05;;;;;;;12.50;2.90;;;;;;;;;;5064811;27;20041;-59
2023/05/04 08:07:32;;;;;;;15.07;3.28;;;;;;;;;;5065279;28;20087;-59
2023/05/04 08:09:59;;;;;;;16.38;4.00;;;;;;;;;;5065075;28;20055;-61
2023/05/04 08:12:27;;;;;;;15.20;3.22;;;;;;;;;;5063587;28;21028;-60
2023/05/04 08:14:53;;;;;;;15.05;3.03;;;;;;;;;;5062479;28;20044;-59
2023/05/04 08:17:20;;;;;;;16.10;3.30;;;;;;;;;;5064088;28;20064;-67
2023/05/04 08:19:47;;;;;;;10.57;3.45;;;;;;;;;;5064082;28;20502;-58
2023/05/04 08:22:14;;;;;;;19.45;3.30;;;;;;;;;;5063856;28;20141;-61
2023/05/04 08:24:40;;;;;;;15.45;3.75;;;;;;;;;;5063041;28;20044;-60
2023/05/04 08:27:07;;;;;;;17.98;3.00;;;;;;;;;;5064493;28;20043;-59
2023/05/04 08:29:35;;;;;;;19.80;3.42;;;;;;;;;;5064670;28;20082;-61
2023/05/04 08:32:02;;;;;;;21.70;3.17;;;;;;;;;;5064394;28;20531;-59
2023/05/04 08:34:29;;;;;;;21.55;3.35;;;;;;;;;;5063263;28;20048;-59
2023/05/04 08:36:56;;;;;;;18.83;3.97;;;;;;;;;;5063025;28;20045;-57
2023/05/04 08:39:23;;;;;;;23.25;3.50;;;;;;;;;;5062838;28;20089;-60
2023/05/04 08:41:50;;;;;;;17.10;3.22;;;;;;;;;;5064516;28;20580;-59
2023/05/04 08:44:20;;;;;;;16.95;2.90;;;;;;;;;;5063405;28;20438;-59
2023/05/04 08:46:52;;;;;;;10.55;2.78;;;;;;;;;;5068794;28;20073;-61
2023/05/04 08:49:24;;;;;;;13.73;2.75;;;;;;;;;;5065904;28;20570;-58
2023/05/04 08:51:51;;;;;;;11.13;2.78;;;;;;;;;;5053217;28;20041;-58
2023/05/04 08:54:18;;;;;;;16.80;2.55;;;;;;;;;;5045194;28;20049;-59
2023/05/04 08:56:46;;;;;;;22.80;3.47;;;;;;;;;;5060048;28;20098;-59
2023/05/04 08:59:19;;;;;;;16.42;2.95;;;;;;;;;;5044670;28;20052;-59
2023/05/04 09:01:51;;;;;;;20.85;3.15;;;;;;;;;;5044294;28;20033;-60
2023/05/04 09:04:18;;;;;;;17.30;3.70;;;;;;;;;;5024940;28;20473;-58
2023/05/04 09:06:46;;;;;;;15.32;2.88;;;;;;;;;;5023640;28;20060;-60
2023/05/04 09:09:13;;;;;;;16.02;3.30;;;;;;;;;;5024140;28;20045;-59
2023/05/04 09:11:40;;;;;;;12.85;2.72;;;;;;;;;;5023277;28;20045;-62
2023/05/04 09:14:06;;;;;;;13.88;3.00;;;;;;;;;;5022615;28;20051;-58
2023/05/04 09:16:34;;;;;;;14.98;2.97;;;;;;;;;;5021996;28;20077;-58
2023/05/04 09:19:01;;;;;;;18.67;3.53;;;;;;;;;;5024418;28;20126;-59
2023/05/04 09:21:32;;;;;;;18.30;3.58;;;;;;;;;;5023057;28;20052;-60
2023/05/04 09:23:58;;;;;;;20.20;3.40;;;;;;;;;;5004586;28;20045;-58
2023/05/04 09:26:28;;;;;;;17.02;3.35;;;;;;;;;;5003009;28;20045;-58
2023/05/04 09:28:55;;;;;;;20.88;3.13;;;;;;;;;;5024299;28;20565;-57
2023/05/04 09:31:22;;;;;;;14.13;2.60;;;;;;;;;;5005735;28;20045;-59
2023/05/04 09:33:49;;;;;;;9.43;2.75;;;;;;;;;;5009015;28;20080;-59
2023/05/04 09:36:17;;;;;;;18.35;3.38;;;;;;;;;;5040774;28;20824;-62
2023/05/04 09:38:44;;;;;;;15.73;2.70;;;;;;;;;;5042139;28;20032;-58
2023/05/04 09:41:11;;;;;;;19.75;3.03;;;;;;;;;;5043131;28;20040;-59
2023/05/04 09:43:42;;;;;;;18.33;2.72;;;;;;;;;;5042612;28;20041;-59
2023/05/04 09:46:17;;;;;;;21.90;3.50;;;;;;;;;;5042661;28;20068;-58
2023/05/04 09:48:53;;;;;;;19.77;2.92;;;;;;;;;;5041675;28;20049;-59
2023/05/04 09:51:22;;;;;;;16.63;2.80;;;;;;;;;;5042317;28;20040;-59
2023/05/04 09:53:52;;;;;;;19.17;3.20;;;;;;;;;;5041410;28;20068;-58
2023/05/04 09:56:37;;;;;;;17.40;3.17;;;;;;;;;;5040988;28;20389;-60
2023/05/04 09:59:04;;;;;;;14.10;3.30;;;;;;;;;;5043160;28;20024;-59
2023/05/04 10:01:31;;;;;;;21.10;3.17;;;;;;;;;;5040751;28;20488;-61
2023/05/04 10:03:58;;;;;;;19.27;3.13;;;;;;;;;;5045417;28;20059;-58
2023/05/04 10:06:25;;;;;;;16.67;2.60;;;;;;;;;;5046024;28;20103;-59
2023/05/04 10:08:51;;;;;;;14.15;2.60;;;;;;;;;;5043995;28;20536;-60
2023/05/04 10:11:20;;;;;;;14.77;2.53;;;;;;;;;;5048674;28;20056;-58
2023/05/04 10:13:48;;;;;;;14.45;2.70;;;;;;;;;;5040239;28;20124;-60
2023/05/04 10:16:33;;;;;;;16.25;3.08;;;;;;;;;;5043271;28;20507;-58
2023/05/04 10:19:15;;;;;;;12.80;2.90;;;;;;;;;;5042346;28;20049;-59
2023/05/04 10:21:50;;;;;;;13.23;2.85;;;;;;;;;;5041953;28;20037;-62
2023/05/04 10:24:20;;;;;;;12.98;2.70;;;;;;;;;;5044001;28;20036;-61
2023/05/04 10:27:05;;;;;;;13.32;2.83;;;;;;;;;;5041478;28;20049;-59
2023/05/04 10:29:32;;;;;;;13.52;2.17;;;;;;;;;;5042874;28;20044;-59
2023/05/04 10:31:59;;;;;;;13.52;2.63;;;;;;;;;;5043442;28;20559;-58
2023/05/04 10:34:32;;;;;;;13.45;2.50;;;;;;;;;;5044721;28;20049;-59
2023/05/04 10:37:01;;;;;;;15.60;2.72;;;;;;;;;;5042670;28;20036;-58
2023/05/04 10:39:32;;;;;;;13.95;2.45;;;;;;;;;;5042518;28;20036;-59
2023/05/04 10:42:02;;;;;;;12.20;2.50;;;;;;;;;;5049597;28;20052;-60
2023/05/04 10:44:33;;;;;;;19.75;3.20;;;;;;;;;;5044322;28;20040;-58
2023/05/04 10:47:04;;;;;;;14.77;2.85;;;;;;;;;;5042793;28;20041;-61
2023/05/04 10:49:31;;;;;;;15.30;2.40;;;;;;;;;;5044281;28;20270;-58
2023/05/04 10:52:11;;;;;;;16.15;2.78;;;;;;;;;;5043607;28;20036;-61
2023/05/04 10:54:40;;;;;;;14.02;2.85;;;;;;;;;;5044306;28;20049;-58
2023/05/04 10:57:16;;;;;;;11.68;2.83;;;;;;;;;;5043593;28;20037;-61
2023/05/04 10:59:55;;;;;;;16.83;2.63;;;;;;;;;;5039219;28;20119;-58
2023/05/04 11:02:23;;;;;;;21.77;2.85;;;;;;;;;;5043895;28;20036;-59
2023/05/04 11:05:06;;;;;;;12.75;2.53;;;;;;;;;;5038382;28;20035;-59
2023/05/04 11:07:37;;;;;;;21.10;3.50;;;;;;;;;;5052014;28;20037;-58
2023/05/04 11:10:10;;;;;;;26.33;3.63;;;;;;;;;;5042159;28;20032;-59
2023/05/04 11:12:36;;;;;;;;;;;;;;;;;;5044262;28;20033;-58
2023/05/04 11:15:07;;;;;;;23.33;2.85;;;;;;;;;;5042233;28;20003;-58
2023/05/04 11:17:34;;;;;;;13.82;3.03;;;;;;;;;;5045746;28;21041;-60
2023/05/04 11:20:00;;;;;;;21.70;3.08;;;;;;;;;;5052471;28;20037;-62
2023/05/04 11:22:28;;;;;;;10.45;3.03;;;;;;;;;;5046007;28;20045;-59
2023/05/04 11:24:55;;;;;;;18.73;3.58;;;;;;;;;;5047430;28;20037;-59
2023/05/04 11:27:22;;;;;;;17.77;3.38;;;;;;;;;;5046277;28;20128;-59
2023/05/04 11:30:02;;;;;;;18.27;3.03;;;;;;;;;;5045221;28;21975;-60
2023/05/04 11:32:34;;;;;;;22.70;3.42;;;;;;;;;;5038846;28;20037;-59
2023/05/04 11:35:01;;;;;;;28.83;3.80;;;;;;;;;;5059532;28;20112;-64
2023/05/04 11:37:38;;;;;;;27.70;4.28;;;;;;;;;;5047108;28;20281;-58
2023/05/04 11:40:08;;;;;;;29.40;4.07;;;;;;;;;;5045306;28;20041;-61
2023/05/04 11:42:35;;;;;;;34.67;4.30;;;;;;;;;;5043582;28;20052;-60
2023/05/04 11:45:02;;;;;;;33.30;4.40;;;;;;;;;;5043958;28;20041;-59
2023/05/04 11:47:28;;;;;;;32.90;4.78;;;;;;;;;;5059700;28;20198;-59
2023/05/04 11:49:55;;;;;;;27.85;4.30;;;;;;;;;;5045924;28;20139;-60
2023/05/04 11:52:29;;;;;;;30.60;4.40;;;;;;;;;;5045645;28;20040;-59
2023/05/04 11:54:56;;;;;;;20.77;4.18;;;;;;;;;;5041406;28;20043;-60
2023/05/04 11:57:22;;;;;;;23.20;4.13;;;;;;;;;;5056105;28;20902;-60
2023/05/04 11:59:50;;;;;;;22.65;4.18;;;;;;;;;;5044799;28;20127;-58
2023/05/04 12:02:17;;;;;;;21.95;3.70;;;;;;;;;;5045249;28;20044;-57
2023/05/04 12:04:43;;;;;;;22.40;3.38;;;;;;;;;;5044643;28;20432;-62
2023/05/04 12:07:10;;;;;;;14.63;3.10;;;;;;;;;;5046510;28;20839;-57
2023/05/04 12:09:47;;;;;;;17.92;2.97;;;;;;;;;;5045669;28;20044;-57
2023/05/04 12:12:17;;;;;;;13.68;2.97;;;;;;;;;;5044667;28;20047;-59
2023/05/04 12:14:57;;;;;;;18.52;3.92;;;;;;;;;;5045647;28;20087;-60
2023/05/04 12:17:25;;;;;;;12.75;3.00;;;;;;;;;;5044745;28;20045;-60
2023/05/04 12:19:55;;;;;;;15.55;2.60;;;;;;;;;;5046953;28;20132;-59
2023/05/04 12:22:28;;;;;;;17.85;3.10;;;;;;;;;;5044618;28;20037;-58
2023/05/04 12:24:57;;;;;;;13.07;3.38;;;;;;;;;;5047014;28;20423;-62
2023/05/04 12:27:25;;;;;;;12.27;3.00;;;;;;;;;;5046016;28;20044;-59
2023/05/04 12:29:52;;;;;;;18.15;3.03;;;;;;;;;;5046458;28;20114;-59
2023/05/04 12:32:20;;;;;;;15.82;3.20;;;;;;;;;;5045841;28;20556;-60
2023/05/04 12:34:47;;;;;;;13.60;3.53;;;;;;;;;;5045449;28;20049;-60
2023/05/04 12:37:13;;;;;;;17.60;3.65;;;;;;;;;;5039632;28;20068;-66
2023/05/04 12:40:00;;;;;;;17.70;3.78;;;;;;;;;;5007462;28;20049;-61
2023/05/04 12:42:27;;;;;;;17.25;3.67;;;;;;;;;;5010333;28;20152;-62
2023/05/04 12:44:54;;;;;;;23.83;3.15;;;;;;;;;;5019212;28;20081;-63
2023/05/04 12:47:23;;;;;;;16.25;3.17;;;;;;;;;;5027051;28;20067;-65
2023/05/04 12:49:49;;;;;;;27.90;3.83;;;;;;;;;;5014427;28;20418;-62
2023/05/04 12:52:16;;;;;;;19.83;3.63;;;;;;;;;;5023760;28;20042;-61
2023/05/04 12:54:43;;;;;;;18.63;3.42;;;;;;;;;;5025668;28;20140;-59
2023/05/04 12:57:11;;;;;;;14.98;3.20;;;;;;;;;;5023827;28;20424;-61
2023/05/04 12:59:39;;;;;;;29.27;4.32;;;;;;;;;;5022782;28;20560;-60
2023/05/04 13:02:05;;;;;;;24.50;3.63;;;;;;;;;;5026835;28;20226;-62
2023/05/04 13:04:32;;;;;;;27.45;4.25;;;;;;;;;;5026528;28;20079;-59
2023/05/04 13:06:59;;;;;;;27.75;4.18;;;;;;;;;;5027195;28;20033;-64
2023/05/04 13:09:26;;;;;;;16.60;3.28;;;;;;;;;;5025794;28;20045;-58
2023/05/04 13:11:53;;;;;;;14.13;3.28;;;;;;;;;;5059308;28;20077;-61
2023/05/04 13:14:20;;;;;;;19.05;3.53;;;;;;;;;;5063552;28;20044;-64
2023/05/04 13:16:47;;;;;;;23.23;3.35;;;;;;;;;;5064566;28;20048;-61
2023/05/04 13:19:13;;;;;;;19.63;3.65;;;;;;;;;;5063161;28;20060;-55
2023/05/04 13:21:40;;;;;;;19.15;3.35;;;;;;;;;;5063439;28;20070;-61
2023/05/04 13:24:07;;;;;;;20.65;3.58;;;;;;;;;;5064086;28;20056;-58
2023/05/04 13:26:33;;;;;;;49.08;5.20;;;;;;;;;;5061542;28;20041;-61
2023/05/04 13:29:02;;;;;;;16.80;3.33;;;;;;;;;;5076256;28;20032;-60
2023/05/04 13:31:29;;;;;;;32.78;4.50;;;;;;;;;;5063811;28;20049;-63
2023/05/04 13:33:55;;;;;;;12.80;3.28;;;;;;;;;;5065173;28;20044;-60
2023/05/04 13:36:23;;;;;;;26.45;4.07;;;;;;;;;;5064646;28;20090;-61
2023/05/04 13:38:50;;;;;;;26.10;3.65;;;;;;;;;;5063434;28;20103;-60
2023/05/04 13:41:17;;;;;;;16.30;3.85;;;;;;;;;;5079543;28;20044;-58
2023/05/04 13:43:43;;;;;;;17.33;3.22;;;;;;;;;;5061839;27;20039;-58
2023/05/04 13:46:11;;;;;;;15.57;3.10;;;;;;;;;;5063615;28;20035;-57
2023/05/04 13:48:38;;;;;;;12.70;3.30;;;;;;;;;;5076306;28;20048;-59
2023/05/04 13:51:05;;;;;;;16.20;3.75;;;;;;;;;;5060477;28;20079;-59
2023/05/04 13:53:31;;;;;;;29.27;4.15;;;;;;;;;;5062549;28;20052;-58
2023/05/04 13:55:58;;;;;;;18.80;3.50;;;;;;;;;;5065216;28;20039;-59
2023/05/04 13:58:25;;;;;;;15.73;3.53;;;;;;;;;;5053623;28;20044;-63
2023/05/04 14:00:54;;;;;;;18.02;3.13;;;;;;;;;;5077878;28;20032;-60
2023/05/04 14:03:21;;;;;;;14.80;3.53;;;;;;;;;;5063068;28;20417;-60
2023/05/04 14:05:51;;;;;;;16.17;2.92;;;;;;;;;;5064485;28;20032;-61
2023/05/04 14:08:19;;;;;;;10.98;2.97;;;;;;;;;;5062536;28;20097;-59
2023/05/04 14:10:45;;;;;;;13.27;2.97;;;;;;;;;;5034376;28;20409;-60
2023/05/04 14:13:13;;;;;;;13.65;3.20;;;;;;;;;;5045256;28;20106;-59
2023/05/04 14:15:40;;;;;;;10.63;2.58;;;;;;;;;;5044523;28;20674;-59
2023/05/04 14:18:06;;;;;;;12.90;3.00;;;;;;;;;;5041992;28;20044;-57
2023/05/04 14:20:33;;;;;;;52.53;5.72;;;;;;;;;;5042652;28;20033;-58
2023/05/04 14:23:00;;;;;;;18.00;2.70;;;;;;;;;;5043824;28;20429;-63
2023/05/04 14:25:26;;;;;;;13.82;2.75;;;;;;;;;;5042435;28;20045;-59
2023/05/04 14:27:53;;;;;;;12.95;2.60;;;;;;;;;;5045095;28;20060;-60
2023/05/04 14:30:20;;;;;;;21.42;3.65;;;;;;;;;;5045380;28;20060;-62
2023/05/04 14:32:46;;;;;;;17.15;3.30;;;;;;;;;;5042118;28;20036;-59
2023/05/04 14:35:15;;;;;;;11.13;2.38;;;;;;;;;;5044621;28;20071;-58
2023/05/04 14:37:41;;;;;;;13.88;2.72;;;;;;;;;;5044631;28;20064;-59